Time,TemperatureF,DewpointF,PressureIn,WindDirection,WindDirectionDegrees,WindSpeedMPH,WindSpeedGustMPH,Humidity,HourlyPrecipIn,Conditions,Clouds,dailyrainin,SoftwareType,DateUTC
2013-01-22 00:02:00,57.0,16.0,30.06,NNE,16,4.0,-999.0,20,-99.99,,,-99.99,,2013-01-22 08:02:00,
2013-01-22 00:11:00,57.0,16.0,30.06,NNE,16,4.0,-999.0,20,-99.99,,,-99.99,,2013-01-22 08:11:00,
2013-01-22 00:22:00,57.0,16.0,30.06,NNE,16,4.0,-999.0,20,-99.99,,,-99.99,,2013-01-22 08:22:00,
2013-01-22 01:33:00,55.0,14.0,30.06,NNE,15,1.0,-999.0,19,-99.99,,,-99.99,,2013-01-22 09:33:00,
2013-01-22 01:43:00,55.0,14.0,30.06,NNE,15,1.0,-999.0,19,-99.99,,,-99.99,,2013-01-22 09:43:00,
2013-01-22 01:52:00,54.0,15.0,30.05,NNE,16,3.0,-999.0,21,-99.99,,,-99.99,,2013-01-22 09:52:00,
2013-01-22 02:02:00,54.0,15.0,30.05,NNE,16,3.0,-999.0,21,-99.99,,,-99.99,,2013-01-22 10:02:00,
2013-01-22 02:12:00,54.0,15.0,30.05,NNE,16,3.0,-999.0,21,-99.99,,,-99.99,,2013-01-22 10:12:00,
2013-01-22 02:22:00,54.0,15.0,30.05,NNE,22,5.0,-999.0,21,-99.99,,,-99.99,,2013-01-22 10:22:00,
2013-01-22 02:32:00,54.0,15.0,30.05,NNE,22,5.0,-999.0,21,-99.99,,,-99.99,,2013-01-22 10:32:00,
2013-01-22 02:42:00,54.0,15.0,30.05,NNE,22,5.0,-999.0,21,-99.99,,,-99.99,,2013-01-22 10:42:00,
2013-01-22 02:52:00,54.0,15.0,30.05,NNE,22,5.0,-999.0,21,-99.99,,,-99.99,,2013-01-22 10:52:00,
2013-01-22 03:02:00,54.0,15.0,30.05,NNE,22,5.0,-999.0,21,-99.99,,,-99.99,,2013-01-22 11:02:00,
2013-01-22 03:23:00,54.0,14.0,30.05,NNE,22,3.0,-999.0,20,-99.99,,,-99.99,,2013-01-22 11:23:00,
2013-01-22 03:33:00,54.0,14.0,30.05,NNE,22,3.0,-999.0,20,-99.99,,,-99.99,,2013-01-22 11:33:00,
2013-01-22 03:43:00,54.0,14.0,30.05,NNE,22,3.0,-999.0,20,-99.99,,,-99.99,,2013-01-22 11:43:00,
2013-01-22 03:53:00,53.0,14.0,30.05,NNE,22,0.0,-999.0,21,-99.99,,,-99.99,,2013-01-22 11:53:00,
2013-01-22 05:53:00,56.0,12.0,30.05,NNE,24,0.0,-999.0,17,-99.99,,,-99.99,,2013-01-22 13:53:00,
2013-01-22 06:02:00,56.0,12.0,30.05,NNE,24,0.0,-999.0,17,-99.99,,,-99.99,,2013-01-22 14:02:00,
2013-01-22 06:12:00,56.0,12.0,30.05,NNE,24,0.0,-999.0,17,-99.99,,,-99.99,,2013-01-22 14:12:00,
2013-01-22 06:22:00,55.0,12.0,30.05,NNE,24,0.0,-999.0,18,-99.99,,,-99.99,,2013-01-22 14:22:00,
2013-01-22 06:33:00,55.0,12.0,30.05,NNE,24,0.0,-999.0,18,-99.99,,,-99.99,,2013-01-22 14:33:00,
2013-01-22 06:44:00,55.0,12.0,30.05,NNE,24,0.0,-999.0,18,-99.99,,,-99.99,,2013-01-22 14:44:00,
2013-01-22 06:53:00,54.0,13.0,30.06,NNE,24,1.0,-999.0,19,-99.99,,,-99.99,,2013-01-22 14:53:00,
2013-01-22 07:02:00,54.0,13.0,30.06,NNE,24,1.0,-999.0,19,-99.99,,,-99.99,,2013-01-22 15:02:00,
2013-01-22 07:12:00,54.0,13.0,30.06,NNE,24,1.0,-999.0,19,-99.99,,,-99.99,,2013-01-22 15:12:00,
2013-01-22 07:23:00,56.0,12.0,30.06,NE,44,4.0,-999.0,17,-99.99,,,-99.99,,2013-01-22 15:23:00,
2013-01-22 07:33:00,56.0,12.0,30.06,NE,44,4.0,-999.0,17,-99.99,,,-99.99,,2013-01-22 15:33:00,
2013-01-22 07:43:00,56.0,12.0,30.06,NE,44,4.0,-999.0,17,-99.99,,,-99.99,,2013-01-22 15:43:00,
2013-01-22 07:53:00,58.0,13.0,30.06,NE,42,4.0,-999.0,17,-99.99,,,-99.99,,2013-01-22 15:53:00,
2013-01-22 08:02:00,58.0,13.0,30.06,NE,42,4.0,-999.0,17,-99.99,,,-99.99,,2013-01-22 16:02:00,
2013-01-22 08:13:00,58.0,13.0,30.06,NE,42,4.0,-999.0,17,-99.99,,,-99.99,,2013-01-22 16:13:00,
2013-01-22 08:22:00,60.0,16.0,30.07,NE,48,0.0,-999.0,18,-99.99,,,-99.99,,2013-01-22 16:22:00,
2013-01-22 08:32:00,60.0,16.0,30.07,NE,48,0.0,-999.0,18,-99.99,,,-99.99,,2013-01-22 16:32:00,
2013-01-22 08:43:00,60.0,16.0,30.07,NE,48,0.0,-999.0,18,-99.99,,,-99.99,,2013-01-22 16:43:00,
2013-01-22 08:53:00,63.0,18.0,30.08,NE,47,0.0,-999.0,17,-99.99,,,-99.99,,2013-01-22 16:53:00,
2013-01-22 09:02:00,63.0,18.0,30.08,NE,47,0.0,-999.0,17,-99.99,,,-99.99,,2013-01-22 17:02:00,
2013-01-22 09:12:00,63.0,18.0,30.08,NE,47,0.0,-999.0,17,-99.99,,,-99.99,,2013-01-22 17:12:00,
2013-01-22 09:22:00,63.0,18.0,30.08,NE,47,0.0,-999.0,17,-99.99,,,-99.99,,2013-01-22 17:22:00,
2013-01-22 09:32:00,63.0,18.0,30.08,NE,47,0.0,-999.0,17,-99.99,,,-99.99,,2013-01-22 17:32:00,
2013-01-22 11:54:00,78.0,15.0,30.05,ENE,67,2.0,-999.0,9,-99.99,,,-99.99,,2013-01-22 19:54:00,
2013-01-22 12:03:00,78.0,15.0,30.05,ENE,67,2.0,-999.0,9,-99.99,,,-99.99,,2013-01-22 20:03:00,
2013-01-22 12:12:00,78.0,15.0,30.05,ENE,67,2.0,-999.0,9,-99.99,,,-99.99,,2013-01-22 20:12:00,
2013-01-22 12:22:00,78.0,15.0,30.05,ENE,67,2.0,-999.0,9,-99.99,,,-99.99,,2013-01-22 20:22:00,
2013-01-22 12:32:00,78.0,15.0,30.05,ENE,67,2.0,-999.0,9,-99.99,,,-99.99,,2013-01-22 20:32:00,
2013-01-22 12:53:00,79.0,26.0,30.02,SSE,167,6.0,-999.0,14,-99.99,,,-99.99,,2013-01-22 20:53:00,
2013-01-22 13:02:00,71.0,31.0,30.02,SSW,194,9.0,-999.0,23,-99.99,,,-99.99,,2013-01-22 21:02:00,
2013-01-22 13:03:00,79.0,26.0,30.02,SSE,167,6.0,-999.0,14,-99.99,,,-99.99,,2013-01-22 21:03:00,
2013-01-22 13:13:00,79.0,26.0,30.02,SSE,167,6.0,-999.0,14,-99.99,,,-99.99,,2013-01-22 21:13:00,
2013-01-22 13:22:00,71.0,31.0,30.02,SSW,194,9.0,-999.0,23,-99.99,,,-99.99,,2013-01-22 21:22:00,
2013-01-22 13:33:00,71.0,31.0,30.02,SSW,194,9.0,-999.0,23,-99.99,,,-99.99,,2013-01-22 21:33:00,
2013-01-22 13:43:00,71.0,31.0,30.02,SSW,194,9.0,-999.0,23,-99.99,,,-99.99,,2013-01-22 21:43:00,
2013-01-22 13:53:00,71.0,31.0,30.02,SSW,194,9.0,-999.0,23,-99.99,,,-99.99,,2013-01-22 21:53:00,
2013-01-22 14:23:00,73.0,30.0,30.02,SSW,195,10.0,-999.0,20,-99.99,,,-99.99,,2013-01-22 22:23:00,
2013-01-22 14:33:00,73.0,30.0,30.02,SSW,195,10.0,-999.0,20,-99.99,,,-99.99,,2013-01-22 22:33:00,
2013-01-22 14:43:00,73.0,30.0,30.02,SSW,195,10.0,-999.0,20,-99.99,,,-99.99,,2013-01-22 22:43:00,
2013-01-22 14:53:00,73.0,30.0,30.02,SSW,195,10.0,-999.0,20,-99.99,,,-99.99,,2013-01-22 22:53:00,
2013-01-22 15:02:00,73.0,30.0,30.02,SSW,195,10.0,-999.0,20,-99.99,,,-99.99,,2013-01-22 23:02:00,
2013-01-22 15:24:00,72.0,26.0,30.01,SW,227,3.0,-999.0,18,-99.99,,,-99.99,,2013-01-22 23:24:00,
2013-01-22 15:53:00,71.0,27.0,30.02,WSW,244,9.0,-999.0,19,-99.99,,,-99.99,,2013-01-22 23:53:00,
2013-01-22 16:22:00,65.0,36.0,30.03,West,278,4.0,-999.0,34,-99.99,,,-99.99,,2013-01-23 00:22:00,
2013-01-22 16:32:00,65.0,36.0,30.03,West,278,4.0,-999.0,34,-99.99,,,-99.99,,2013-01-23 00:32:00,
2013-01-22 16:43:00,65.0,36.0,30.03,West,278,4.0,-999.0,34,-99.99,,,-99.99,,2013-01-23 00:43:00,
2013-01-22 16:52:00,65.0,36.0,30.03,West,278,4.0,-999.0,34,-99.99,,,-99.99,,2013-01-23 00:52:00,
2013-01-22 17:02:00,65.0,36.0,30.03,West,278,4.0,-999.0,34,-99.99,,,-99.99,,2013-01-23 01:02:00,
2013-01-22 17:53:00,62.0,33.0,30.03,NW,323,0.0,-999.0,33,-99.99,,,-99.99,,2013-01-23 01:53:00,
2013-01-22 18:03:00,62.0,33.0,30.03,NW,323,0.0,-999.0,33,-99.99,,,-99.99,,2013-01-23 02:03:00,
2013-01-22 18:12:00,62.0,33.0,30.03,NW,323,0.0,-999.0,33,-99.99,,,-99.99,,2013-01-23 02:12:00,
2013-01-22 18:22:00,62.0,33.0,30.03,NW,323,0.0,-999.0,33,-99.99,,,-99.99,,2013-01-23 02:22:00,
2013-01-22 18:32:00,62.0,33.0,30.03,NW,323,0.0,-999.0,33,-99.99,,,-99.99,,2013-01-23 02:32:00,
2013-01-22 19:23:00,57.0,36.0,30.04,ENE,58,1.0,-999.0,45,-99.99,,,-99.99,,2013-01-23 03:23:00,
2013-01-22 19:33:00,57.0,36.0,30.04,ENE,58,1.0,-999.0,45,-99.99,,,-99.99,,2013-01-23 03:33:00,
2013-01-22 19:43:00,57.0,36.0,30.04,ENE,58,1.0,-999.0,45,-99.99,,,-99.99,,2013-01-23 03:43:00,
2013-01-22 19:53:00,56.0,31.0,30.03,NNE,32,2.0,-999.0,38,-99.99,,,-99.99,,2013-01-23 03:53:00,
2013-01-22 20:02:00,56.0,31.0,30.03,NNE,32,2.0,-999.0,38,-99.99,,,-99.99,,2013-01-23 04:02:00,
2013-01-22 20:12:00,56.0,31.0,30.03,NNE,32,2.0,-999.0,38,-99.99,,,-99.99,,2013-01-23 04:12:00,
2013-01-22 20:22:00,56.0,31.0,30.03,NNE,32,2.0,-999.0,38,-99.99,,,-99.99,,2013-01-23 04:22:00,
2013-01-22 20:32:00,56.0,31.0,30.03,NNE,32,2.0,-999.0,38,-99.99,,,-99.99,,2013-01-23 04:32:00,
2013-01-22 21:23:00,56.0,25.0,30.05,NNE,32,2.0,-999.0,30,-99.99,,,-99.99,,2013-01-23 05:23:00,
2013-01-22 21:33:00,56.0,25.0,30.05,NNE,32,2.0,-999.0,30,-99.99,,,-99.99,,2013-01-23 05:33:00,
2013-01-22 21:43:00,56.0,25.0,30.05,NNE,32,2.0,-999.0,30,-99.99,,,-99.99,,2013-01-23 05:43:00,
2013-01-22 21:52:00,56.0,25.0,30.05,NNE,32,2.0,-999.0,30,-99.99,,,-99.99,,2013-01-23 05:52:00,
2013-01-22 22:02:00,56.0,25.0,30.05,NNE,32,2.0,-999.0,30,-99.99,,,-99.99,,2013-01-23 06:02:00,
2013-01-22 23:23:00,56.0,22.0,30.05,NNE,32,2.0,-999.0,26,-99.99,,,-99.99,,2013-01-23 07:23:00,
2013-01-22 23:33:00,56.0,22.0,30.05,NNE,32,2.0,-999.0,26,-99.99,,,-99.99,,2013-01-23 07:33:00,
2013-01-22 23:43:00,56.0,22.0,30.05,NNE,32,2.0,-999.0,26,-99.99,,,-99.99,,2013-01-23 07:43:00,
2013-01-22 23:53:00,56.0,21.0,30.03,NNE,31,4.0,-999.0,25,-99.99,,,-99.99,,2013-01-23 07:53:00,